Time;durP1;ratioP1;P1;durP2;ratioP2;P2;SDS_P1;SDS_P2;PMS_P1;PMS_P2;Temp;Humidity;BMP_temperature;BMP_pressure;BME280_temperature;BME280_humidity;BME280_pressure;Samples;Min_cycle;Max_cycle;Signal;HPM_P1;HPM_P2
2021/05/08 00:03:36;;;;;;;4.23;3.03;;;;;;;2.14;100.00;98551.89;3806810;76;43613;-22
2021/05/08 00:08:43;;;;;;;4.63;2.93;;;;;;;2.12;100.00;98544.48;3803450;78;43728;-23
2021/05/08 00:13:49;;;;;;;3.03;2.63;;;;;;;2.09;100.00;98547.34;3803564;77;43301;-22
2021/05/08 00:18:55;;;;;;;3.50;2.70;;;;;;;2.10;100.00;98554.86;3805415;76;44724;-21
2021/05/08 00:24:03;;;;;;;4.07;3.17;;;;;;;2.05;100.00;98559.63;3804827;78;43465;-22
2021/05/08 00:29:09;;;;;;;4.43;2.70;;;;;;;2.00;100.00;98560.77;3804337;78;43389;-21
2021/05/08 00:34:15;;;;;;;3.17;2.87;;;;;;;1.95;100.00;98558.92;3804718;76;44734;-21
2021/05/08 00:39:23;;;;;;;3.90;2.93;;;;;;;1.91;100.00;98560.07;3802422;76;42798;-21
2021/05/08 00:44:29;;;;;;;4.77;3.00;;;;;;;1.92;100.00;98559.61;3804311;78;43373;-21
2021/05/08 00:49:35;;;;;;;3.97;3.23;;;;;;;1.88;100.00;98557.64;3803276;76;43671;-21
2021/05/08 00:54:44;;;;;;;3.37;2.90;;;;;;;1.82;100.00;98553.56;3776147;78;43703;-20
2021/05/08 00:59:52;;;;;;;3.60;3.00;;;;;;;1.74;100.00;98549.73;3774743;78;26477;-21
2021/05/08 01:04:59;;;;;;;3.90;3.00;;;;;;;1.68;100.00;98548.34;3776889;77;43698;-21
2021/05/08 01:10:08;;;;;;;3.33;2.87;;;;;;;1.65;100.00;98552.52;3770623;77;43686;-21
2021/05/08 01:15:16;;;;;;;5.47;3.40;;;;;;;1.61;100.00;98548.36;3774553;78;43996;-21
2021/05/08 01:20:26;;;;;;;5.60;2.77;;;;;;;1.59;100.00;98553.78;3776712;76;26422;-21
2021/05/08 01:25:33;;;;;;;3.83;2.90;;;;;;;1.56;100.00;98550.48;3774102;77;26380;-22
2021/05/08 01:30:41;;;;;;;3.53;2.67;;;;;;;1.53;100.00;98554.16;3769889;78;44026;-22
2021/05/08 01:35:54;;;;;;;3.07;2.70;;;;;;;1.51;100.00;98552.95;3777108;77;27600;-23
2021/05/08 01:41:03;;;;;;;3.97;3.10;;;;;;;1.48;100.00;98550.98;3766038;78;26878;-22
2021/05/08 01:46:10;;;;;;;4.53;2.90;;;;;;;1.51;100.00;98551.63;3775931;77;43691;-22
2021/05/08 01:51:19;;;;;;;4.03;2.87;;;;;;;1.50;100.00;98547.75;3775301;77;43301;-26
2021/05/08 01:56:25;;;;;;;5.50;3.00;;;;;;;1.51;100.00;98550.30;3804367;78;44031;-26
2021/05/08 02:01:34;;;;;;;4.07;3.07;;;;;;;1.49;100.00;98552.19;3806186;76;43968;-26
2021/05/08 02:06:42;;;;;;;4.60;2.73;;;;;;;1.49;100.00;98549.54;3804132;76;43667;-26
2021/05/08 02:11:50;;;;;;;4.80;2.70;;;;;;;1.50;100.00;98555.23;3798644;78;26285;-26
2021/05/08 02:16:57;;;;;;;3.57;2.87;;;;;;;1.48;100.00;98547.83;3803927;76;43994;-26
2021/05/08 02:22:03;;;;;;;3.40;2.83;;;;;;;1.47;100.00;98550.11;3803504;78;43687;-26
2021/05/08 02:27:10;;;;;;;4.03;2.83;;;;;;;1.46;100.00;98556.41;3803627;78;43408;-26
2021/05/08 02:32:16;;;;;;;4.93;2.90;;;;;;;1.45;100.00;98556.48;3805086;76;43984;-26
2021/05/08 02:37:23;;;;;;;3.27;2.93;;;;;;;1.47;100.00;98550.11;3804283;78;43691;-26
2021/05/08 02:42:29;;;;;;;3.67;2.97;;;;;;;1.57;100.00;98552.19;3803812;76;43054;-26
2021/05/08 02:47:37;;;;;;;6.20;3.10;;;;;;;1.56;100.00;98546.50;3805419;76;44142;-26
2021/05/08 02:52:43;;;;;;;5.17;3.30;;;;;;;1.60;100.00;98549.30;3765366;78;42599;-26
2021/05/08 02:57:53;;;;;;;4.07;3.20;;;;;;;1.64;100.00;98549.03;3769932;78;43665;-26
2021/05/08 03:02:59;;;;;;;3.43;3.00;;;;;;;1.73;100.00;98550.20;3776243;77;43726;-26
2021/05/08 03:08:07;;;;;;;3.23;2.80;;;;;;;1.84;100.00;98541.03;3772961;78;43108;-26
2021/05/08 03:13:14;;;;;;;5.67;2.80;;;;;;;1.91;100.00;98541.97;3773372;77;43692;-26
2021/05/08 03:18:20;;;;;;;6.43;3.20;;;;;;;1.97;100.00;98534.89;3772471;77;42786;-26
2021/05/08 03:23:26;;;;;;;3.30;3.00;;;;;;;1.95;100.00;98538.13;3773704;77;43414;-26
2021/05/08 03:28:33;;;;;;;4.57;3.10;;;;;;;1.92;100.00;98539.19;3768638;78;43705;-25
2021/05/08 03:33:40;;;;;;;3.77;3.33;;;;;;;1.91;100.00;98541.97;3776720;76;43975;-26
2021/05/08 03:38:47;;;;;;;3.73;3.33;;;;;;;1.89;100.00;98538.55;3773749;77;43617;-25
2021/05/08 03:43:53;;;;;;;4.77;3.60;;;;;;;1.83;100.00;98534.51;3773271;77;44545;-26
2021/05/08 03:48:59;;;;;;;3.67;3.17;;;;;;;1.87;100.00;98541.78;3775715;77;44446;-26
2021/05/08 03:54:07;;;;;;;4.80;3.30;;;;;;;1.83;100.00;98541.98;3767922;78;43679;-26
2021/05/08 03:59:12;;;;;;;4.30;3.70;;;;;;;1.82;100.00;98550.91;3772393;77;43491;-26
2021/05/08 04:04:18;;;;;;;4.77;3.27;;;;;;;1.83;100.00;98552.61;3774825;77;44103;-26
2021/05/08 04:09:25;;;;;;;3.97;3.57;;;;;;;1.88;100.00;98557.64;3770961;78;43373;-26
2021/05/08 04:14:31;;;;;;;4.27;3.70;;;;;;;1.91;100.00;98561.89;3773837;78;43182;-26
2021/05/08 04:19:37;;;;;;;4.33;3.67;;;;;;;1.93;100.00;98559.50;3775741;77;43657;-26
2021/05/08 04:24:43;;;;;;;5.20;3.90;;;;;;;2.00;100.00;98567.91;3773340;77;44066;-26
2021/05/08 04:29:49;;;;;;;4.20;3.70;;;;;;;2.09;100.00;98573.92;3772503;78;43473;-26
2021/05/08 04:34:55;;;;;;;3.87;3.43;;;;;;;2.17;100.00;98566.77;3779499;77;44069;-26
2021/05/08 04:40:01;;;;;;;4.77;3.90;;;;;;;2.15;100.00;98567.34;3769985;77;43378;-26
2021/05/08 04:45:09;;;;;;;5.43;3.63;;;;;;;2.17;100.00;98575.23;3771463;78;44115;-26
2021/05/08 04:50:15;;;;;;;5.13;3.93;;;;;;;2.21;100.00;98574.91;3772602;77;43988;-26
2021/05/08 04:55:22;;;;;;;5.63;3.67;;;;;;;2.36;100.00;98580.11;3808283;77;44039;-26
2021/05/08 05:00:28;;;;;;;5.23;4.20;;;;;;;2.50;100.00;98584.50;3819371;77;43306;-26
2021/05/08 05:05:34;;;;;;;5.43;4.27;;;;;;;2.72;100.00;98587.37;3831460;76;43270;-26
2021/05/08 05:10:40;;;;;;;5.50;4.20;;;;;;;2.87;100.00;98589.91;3824441;77;44045;-26
2021/05/08 05:15:45;;;;;;;4.47;4.07;;;;;;;3.02;100.00;98586.14;3828919;77;44110;-26
2021/05/08 05:20:53;;;;;;;4.87;4.03;;;;;;;3.11;100.00;98586.47;3834449;76;43671;-26
2021/05/08 05:25:59;;;;;;;8.37;5.30;;;;;;;3.33;100.00;98605.73;3828986;77;43656;-26
2021/05/08 05:31:05;;;;;;;5.47;4.40;;;;;;;3.50;100.00;98599.17;3828776;76;43389;-26
2021/05/08 05:36:11;;;;;;;5.30;4.20;;;;;;;3.60;100.00;98598.86;3820318;77;42923;-26
2021/05/08 05:41:17;;;;;;;5.20;4.27;;;;;;;3.67;100.00;98603.27;3822666;76;43280;-26
2021/05/08 05:46:23;;;;;;;5.40;4.10;;;;;;;3.76;100.00;98603.08;3730413;78;43492;-26
2021/05/08 05:51:29;;;;;;;4.80;3.90;;;;;;;3.91;100.00;98607.27;3823814;76;44025;-26
2021/05/08 05:56:36;;;;;;;5.37;4.47;;;;;;;4.11;100.00;98603.12;3805545;76;43236;-26
2021/05/08 06:01:41;;;;;;;4.67;4.20;;;;;;;4.18;100.00;98603.97;3788827;77;44523;-27
2021/05/08 06:06:47;;;;;;;6.53;4.50;;;;;;;4.27;100.00;98608.14;3784668;77;44089;-25
2021/05/08 06:11:53;;;;;;;4.77;4.03;;;;;;;4.40;100.00;98611.20;3795179;77;44068;-28
2021/05/08 06:17:01;;;;;;;4.60;3.93;;;;;;;4.54;96.92;98606.13;3801181;77;44094;-27
2021/05/08 06:22:09;;;;;;;6.57;4.30;;;;;;;4.80;97.17;98609.94;3796545;77;43320;-25
2021/05/08 06:27:15;;;;;;;5.47;4.37;;;;;;;4.96;94.29;98609.58;3798912;77;43673;-26
2021/05/08 06:32:22;;;;;;;5.87;4.37;;;;;;;5.16;90.66;98606.67;3801034;77;42953;-27
2021/05/08 06:37:28;;;;;;;4.80;4.30;;;;;;;5.30;91.83;98609.56;3788897;77;43992;-32
2021/05/08 06:42:35;;;;;;;4.63;3.70;;;;;;;5.47;92.19;98614.87;3798275;77;44156;-26
2021/05/08 06:47:41;;;;;;;4.27;3.77;;;;;;;5.55;91.84;98609.75;3799165;77;43722;-26
2021/05/08 06:52:48;;;;;;;5.27;3.83;;;;;;;5.84;90.13;98612.72;3798409;78;44706;-25
2021/05/08 06:58:05;;;;;;;6.17;3.83;;;;;;;6.11;85.71;98614.12;3787301;77;44053;-26
2021/05/08 07:03:12;;;;;;;6.83;4.55;;;;;;;6.38;83.17;98611.44;3784823;77;69269;-27
2021/05/08 07:08:19;;;;;;;5.47;3.83;;;;;;;6.58;78.94;98606.21;3785943;78;44003;-27
2021/05/08 07:13:25;;;;;;;5.03;4.30;;;;;;;6.78;76.54;98601.32;3785785;77;43731;-27
2021/05/08 07:18:32;;;;;;;4.60;3.60;;;;;;;7.07;78.60;98599.28;3786922;77;43401;-25
2021/05/08 07:23:39;;;;;;;4.22;3.70;;;;;;;7.28;72.47;98596.19;3784954;78;65180;-26
2021/05/08 07:28:46;;;;;;;4.50;3.70;;;;;;;7.44;70.90;98589.80;3785519;77;43461;-25
2021/05/08 07:33:53;;;;;;;4.40;3.43;;;;;;;7.65;70.23;98594.22;3786586;77;43718;-28
2021/05/08 07:38:58;;;;;;;4.58;3.42;;;;;;;7.92;71.37;98595.39;3784599;78;44486;-27
2021/05/08 07:44:07;;;;;;;4.05;3.65;;;;;;;8.08;66.20;98588.12;3784948;78;43323;-28
2021/05/08 07:49:13;;;;;;;4.50;3.50;;;;;;;8.29;64.91;98586.13;3786033;77;43657;-26
2021/05/08 07:54:19;;;;;;;5.22;3.55;;;;;;;8.50;65.37;98575.77;3783175;77;43670;-26
2021/05/08 07:59:25;;;;;;;5.78;3.60;;;;;;;8.64;62.66;98573.95;3728984;79;44058;-26
2021/05/08 08:04:30;;;;;;;3.80;3.00;;;;;;;8.94;58.19;98573.38;3822617;76;43347;-27
2021/05/08 08:09:36;;;;;;;3.55;3.22;;;;;;;9.11;59.03;98573.61;3817712;76;44067;-27
2021/05/08 08:14:42;;;;;;;3.50;3.20;;;;;;;9.28;59.65;98577.83;3728116;78;44075;-27
2021/05/08 08:19:50;;;;;;;4.22;3.75;;;;;;;9.55;60.35;98577.83;3825521;76;44037;-26
2021/05/08 08:24:57;;;;;;;4.35;3.20;;;;;;;9.84;61.36;98579.45;3822348;76;44605;-26
2021/05/08 08:30:04;;;;;;;3.95;3.30;;;;;;;10.11;60.04;98575.02;3728602;78;44096;-26
2021/05/08 08:35:11;;;;;;;5.20;3.37;;;;;;;10.12;56.42;98578.05;3826445;76;44054;-26
2021/05/08 08:40:17;;;;;;;3.80;3.40;;;;;;;10.34;54.37;98583.95;3822940;77;44098;-27
2021/05/08 08:45:23;;;;;;;4.50;3.40;;;;;;;10.48;54.57;98578.53;3823318;76;43682;-27
2021/05/08 08:50:32;;;;;;;6.85;3.75;;;;;;;10.78;49.87;98569.14;3820596;76;43437;-26
2021/05/08 08:55:40;;;;;;;4.15;3.50;;;;;;;10.88;51.25;98567.69;3812181;77;43002;-26
2021/05/08 09:00:46;;;;;;;5.35;3.25;;;;;;;11.19;50.10;98560.94;3785486;77;43382;-26
2021/05/08 09:05:52;;;;;;;5.87;3.27;;;;;;;11.54;49.71;98552.30;3788589;77;42978;-26
2021/05/08 09:11:20;;;;;;;3.95;3.12;;;;;;;11.84;47.76;98559.44;3784148;77;43713;-26
2021/05/08 09:16:26;;;;;;;4.00;3.17;;;;;;;11.96;47.15;98551.36;3786912;77;43437;-27
2021/05/08 09:21:32;;;;;;;5.45;3.17;;;;;;;12.02;50.86;98559.33;3785378;78;43170;-26
2021/05/08 09:26:39;;;;;;;3.80;3.50;;;;;;;11.96;47.80;98541.91;3786400;77;43685;-27
2021/05/08 09:31:56;;;;;;;4.78;3.65;;;;;;;11.90;47.48;98549.83;3788844;77;43143;-27
2021/05/08 09:37:03;;;;;;;19.20;4.30;;;;;;;11.97;50.51;98559.80;3785069;78;43736;-27
2021/05/08 09:42:11;;;;;;;3.33;2.80;;;;;;;11.64;51.65;98557.05;3783878;77;43436;-27
2021/05/08 09:47:29;;;;;;;3.22;2.87;;;;;;;11.31;50.17;98542.59;3788617;77;43709;-27
2021/05/08 09:52:46;;;;;;;4.50;3.02;;;;;;;11.37;50.99;98542.79;3785028;78;43370;-28
2021/05/08 09:58:02;;;;;;;2.98;2.60;;;;;;;11.89;48.18;98526.05;3781676;78;44496;-27
2021/05/08 10:03:11;;;;;;;4.30;2.60;;;;;;;12.18;45.68;98524.72;3785066;77;44462;-27
2021/05/08 10:08:17;;;;;;;3.50;2.60;;;;;;;12.17;47.51;98516.31;3787106;78;44006;-27
2021/05/08 10:13:24;;;;;;;2.58;2.37;;;;;;;12.66;46.48;98510.48;3786367;77;43337;-28
2021/05/08 10:18:34;;;;;;;3.85;2.77;;;;;;;12.92;43.42;98517.02;3785003;77;44818;-28
2021/05/08 10:23:40;;;;;;;5.00;2.55;;;;;;;12.57;44.06;98511.86;3783531;78;43563;-28
2021/05/08 10:28:47;;;;;;;2.70;2.35;;;;;;;12.90;42.37;98509.06;3786399;78;43678;-29
2021/05/08 10:33:52;;;;;;;2.47;2.27;;;;;;;13.35;42.52;98500.41;3789625;77;43430;-28
2021/05/08 10:39:07;;;;;;;3.47;2.42;;;;;;;13.06;42.15;98500.56;3785177;77;43722;-27
2021/05/08 10:44:15;;;;;;;2.55;2.30;;;;;;;12.92;41.97;98507.03;3784138;77;42676;-27
2021/05/08 10:49:21;;;;;;;2.30;2.10;;;;;;;13.22;43.79;98496.45;3783023;77;44100;-27
2021/05/08 10:54:55;;;;;;;2.50;2.17;;;;;;;13.19;42.11;98495.44;3787157;78;44042;-27
2021/05/08 11:00:44;;;;;;;2.30;1.80;;;;;;;13.09;41.80;98486.70;3797004;77;44027;-27
2021/05/08 11:05:54;;;;;;;2.58;1.90;;;;;;;13.62;40.64;98482.02;3700043;78;43172;-27
2021/05/08 11:11:02;;;;;;;2.33;1.67;;;;;;;13.57;40.89;98478.50;3796448;78;44042;-27
2021/05/08 11:16:12;;;;;;;2.75;1.95;;;;;;;13.76;39.98;98479.08;3798709;77;43685;-27
2021/05/08 11:21:44;;;;;;;2.15;1.90;;;;;;;13.91;37.82;98463.70;3640919;80;43713;-28
2021/05/08 11:26:51;;;;;;;1.85;1.67;;;;;;;14.39;39.86;98456.68;3803866;78;44450;-27
2021/05/08 11:31:58;;;;;;;2.12;1.90;;;;;;;14.64;40.43;98455.89;3806885;76;44669;-27
2021/05/08 11:37:06;;;;;;;2.70;2.05;;;;;;;14.01;38.33;98440.44;3805102;78;44079;-29
2021/05/08 11:42:17;;;;;;;6.97;2.27;;;;;;;13.98;40.67;98432.67;3794801;78;44003;-27
2021/05/08 11:47:30;;;;;;;2.83;2.10;;;;;;;13.58;41.86;98427.41;3788791;76;43725;-27
2021/05/08 11:52:40;;;;;;;2.90;2.08;;;;;;;13.69;41.33;98435.11;3789684;78;44050;-28
2021/05/08 11:57:54;;;;;;;3.60;2.20;;;;;;;14.54;39.45;98416.52;3791968;76;42899;-28
2021/05/08 12:03:09;;;;;;;4.75;2.42;;;;;;;14.54;42.22;98423.30;3801397;76;44696;-29
2021/05/08 12:08:16;;;;;;;6.45;2.87;;;;;;;14.08;40.50;98409.39;3794985;78;43467;-28
2021/05/08 12:13:29;;;;;;;3.80;2.40;;;;;;;14.16;40.54;98416.94;3788720;78;43408;-27
2021/05/08 12:18:35;;;;;;;2.45;2.25;;;;;;;14.32;40.92;98398.80;3789558;76;43026;-27
2021/05/08 12:23:41;;;;;;;2.30;2.10;;;;;;;14.60;39.46;98392.21;3792826;76;44231;-27
2021/05/08 12:28:57;;;;;;;2.50;2.30;;;;;;;14.84;39.22;98379.41;3804055;78;43644;-28
2021/05/08 12:34:09;;;;;;;4.17;2.30;;;;;;;14.99;42.41;98375.33;3805139;76;43152;-27
2021/05/08 12:39:20;;;;;;;2.72;2.22;;;;;;;14.57;40.30;98374.12;3801394;78;44065;-27
2021/05/08 12:44:33;;;;;;;34.13;3.50;;;;;;;14.71;39.97;98372.45;3805372;78;44618;-27
2021/05/08 12:49:39;;;;;;;3.33;2.22;;;;;;;14.81;42.72;98362.67;3808364;76;43334;-27
2021/05/08 12:54:51;;;;;;;7.03;2.65;;;;;;;15.43;39.83;98344.97;3806407;76;44090;-27
2021/05/08 13:00:00;;;;;;;2.50;2.30;;;;;;;15.61;39.08;98339.06;3786040;78;43674;-28
2021/05/08 13:05:12;;;;;;;2.60;2.00;;;;;;;15.60;36.49;98329.23;3777920;77;43201;-28
2021/05/08 13:10:31;;;;;;;2.47;2.08;;;;;;;15.92;36.96;98322.09;3775754;78;43479;-28
2021/05/08 13:15:38;;;;;;;2.65;2.00;;;;;;;15.20;38.66;98312.61;3771944;78;43668;-28
2021/05/08 13:20:44;;;;;;;2.20;1.98;;;;;;;16.40;37.51;98317.28;3777858;77;44066;-28
2021/05/08 13:25:50;;;;;;;2.33;2.12;;;;;;;17.30;38.45;98298.63;3775452;77;44505;-28
2021/05/08 13:30:55;;;;;;;3.25;2.25;;;;;;;16.22;38.33;98307.76;3774140;77;44084;-28
2021/05/08 13:36:01;;;;;;;2.90;2.10;;;;;;;16.13;39.02;98296.20;3778516;77;44078;-28
2021/05/08 13:41:07;;;;;;;2.33;1.82;;;;;;;15.82;38.59;98289.30;3773320;78;44086;-28
2021/05/08 13:46:13;;;;;;;2.40;1.95;;;;;;;16.30;35.80;98284.48;3775598;77;44035;-28
2021/05/08 13:51:18;;;;;;;1.98;1.70;;;;;;;17.03;33.04;98272.72;3777114;77;44204;-29
2021/05/08 13:56:24;;;;;;;2.02;1.82;;;;;;;17.33;35.41;98263.64;3774363;77;43256;-29
2021/05/08 14:01:30;;;;;;;3.90;2.40;;;;;;;17.03;38.06;98257.75;3774679;77;43342;-29
2021/05/08 14:06:36;;;;;;;2.10;1.77;;;;;;;16.99;35.43;98255.97;3774289;78;44004;-28
2021/05/08 14:11:43;;;;;;;2.17;1.98;;;;;;;16.47;38.42;98249.63;3767145;77;43992;-28
2021/05/08 14:16:49;;;;;;;3.02;1.90;;;;;;;16.35;37.82;98240.91;3774769;77;44467;-28
2021/05/08 14:21:56;;;;;;;2.08;1.52;;;;;;;17.59;34.97;98235.23;3773757;78;44027;-28
2021/05/08 14:27:01;;;;;;;2.45;2.00;;;;;;;18.25;37.09;98226.63;3775235;77;43334;-28
2021/05/08 14:32:08;;;;;;;2.22;2.00;;;;;;;17.57;36.56;98220.47;3773498;77;44079;-28
2021/05/08 14:37:15;;;;;;;3.80;2.05;;;;;;;17.60;36.17;98217.84;3773889;78;44937;-28
2021/05/08 14:42:22;;;;;;;2.40;1.92;;;;;;;18.14;35.59;98205.80;3776223;77;43441;-27
2021/05/08 14:47:28;;;;;;;2.00;1.70;;;;;;;17.74;36.94;98201.79;3770908;77;44085;-27
2021/05/08 14:52:36;;;;;;;1.85;1.57;;;;;;;18.50;34.60;98202.16;3770468;77;43694;-28
2021/05/08 14:57:42;;;;;;;2.15;1.75;;;;;;;19.42;34.52;98195.97;3772188;77;43281;-28
2021/05/08 15:02:48;;;;;;;4.60;2.00;;;;;;;19.93;31.78;98185.80;3802130;76;44444;-28
2021/05/08 15:07:54;;;;;;;2.02;1.70;;;;;;;19.86;32.93;98187.24;3804843;78;43686;-27
2021/05/08 15:13:00;;;;;;;2.08;1.70;;;;;;;19.91;33.21;98180.58;3804615;76;43332;-29
2021/05/08 15:18:06;;;;;;;2.15;1.80;;;;;;;19.89;32.07;98180.48;3798390;78;43429;-29
2021/05/08 15:23:12;;;;;;;2.10;1.90;;;;;;;19.18;32.33;98167.91;3804114;78;44049;-28
2021/05/08 15:28:18;;;;;;;2.67;1.90;;;;;;;18.89;33.06;98162.55;3799380;76;43459;-28
2021/05/08 15:33:23;;;;;;;3.00;2.70;;;;;;;19.16;32.18;98150.08;3804547;76;44070;-27
2021/05/08 15:38:29;;;;;;;3.50;2.10;;;;;;;18.85;33.94;98144.96;3802841;78;43713;-28
2021/05/08 15:43:35;;;;;;;3.83;2.20;;;;;;;18.68;31.36;98140.58;3803919;76;43016;-28
2021/05/08 15:48:41;;;;;;;2.40;1.85;;;;;;;18.23;35.13;98146.92;3804136;78;43119;-28
2021/05/08 15:53:48;;;;;;;3.50;3.00;;;;;;;18.51;33.74;98144.36;3803430;78;42897;-27
2021/05/08 15:58:54;;;;;;;3.37;2.80;;;;;;;17.47;34.15;98154.17;3805904;76;43671;-27
2021/05/08 16:04:00;;;;;;;3.00;2.30;;;;;;;17.02;36.26;98144.48;3798088;77;43298;-27
2021/05/08 16:09:07;;;;;;;1.98;1.70;;;;;;;16.62;37.23;98137.97;3796007;76;43349;-27
2021/05/08 16:14:13;;;;;;;3.47;2.40;;;;;;;16.33;37.59;98126.95;3798463;76;44092;-27
2021/05/08 16:19:19;;;;;;;2.95;2.60;;;;;;;16.17;38.07;98122.70;3796925;77;43739;-21
2021/05/08 16:24:26;;;;;;;4.20;2.22;;;;;;;16.08;38.02;98128.86;3802212;78;43279;-22
2021/05/08 16:29:32;;;;;;;4.08;1.90;;;;;;;16.25;38.88;98116.23;3802315;76;43428;-20
2021/05/08 16:34:38;;;;;;;4.00;2.37;;;;;;;16.37;37.32;98107.80;3804017;77;44019;-21
2021/05/08 16:39:46;;;;;;;3.70;3.37;;;;;;;16.52;38.62;98107.63;3799950;76;43666;-21
2021/05/08 16:44:51;;;;;;;3.62;2.67;;;;;;;16.40;37.87;98098.41;3789588;76;43415;-21
2021/05/08 16:49:58;;;;;;;9.05;2.72;;;;;;;16.57;39.31;98101.03;3790055;78;43343;-21
2021/05/08 16:55:08;;;;;;;7.25;2.40;;;;;;;16.73;38.58;98098.95;3789445;76;44103;-22
2021/05/08 17:00:17;;;;;;;2.08;1.85;;;;;;;16.87;39.04;98092.47;3786434;77;43697;-22
2021/05/08 17:05:23;;;;;;;3.80;2.10;;;;;;;17.03;36.81;98086.30;3754889;78;43688;-21
2021/05/08 17:10:29;;;;;;;3.98;2.42;;;;;;;17.21;37.36;98084.27;3748164;77;44080;-20
2021/05/08 17:15:36;;;;;;;3.10;2.27;;;;;;;17.05;38.34;98082.84;3753785;78;43444;-21
2021/05/08 17:20:43;;;;;;;7.28;6.53;;;;;;;16.71;38.38;98099.69;3759603;78;43436;-21
2021/05/08 17:25:48;;;;;;;9.95;7.37;;;;;;;16.40;38.54;98091.08;3755763;77;44026;-22
2021/05/08 17:30:56;;;;;;;9.45;6.20;;;;;;;16.47;39.17;98089.73;3751375;78;43702;-22
2021/05/08 17:36:01;;;;;;;12.43;9.60;;;;;;;16.10;38.62;98083.81;3758881;78;44033;-21
2021/05/08 17:41:09;;;;;;;8.53;6.90;;;;;;;15.87;38.98;98089.07;3760098;77;44091;-21
2021/05/08 17:46:15;;;;;;;8.00;4.90;;;;;;;15.49;39.91;98091.71;3757533;77;43352;-21
2021/05/08 17:51:22;;;;;;;5.15;3.80;;;;;;;15.30;39.53;98089.20;3752908;78;43690;-21
2021/05/08 17:56:28;;;;;;;3.35;2.62;;;;;;;15.23;40.76;98067.95;3770838;77;44018;-21
2021/05/08 18:01:35;;;;;;;3.12;2.10;;;;;;;15.23;41.12;98072.03;3787332;77;43269;-21
2021/05/08 18:06:42;;;;;;;13.88;8.55;;;;;;;15.01;40.07;98070.75;3826810;76;44042;-21
2021/05/08 18:11:49;;;;;;;3.83;1.70;;;;;;;15.03;41.96;98067.86;3826904;76;43408;-21
2021/05/08 18:16:55;;;;;;;2.37;1.77;;;;;;;14.95;42.38;98064.78;3826155;76;43147;-21
2021/05/08 18:22:02;;;;;;;2.62;1.57;;;;;;;14.92;42.46;98057.89;3827341;77;44063;-22
2021/05/08 18:27:08;;;;;;;2.85;1.67;;;;;;;14.85;42.39;98065.13;3828017;76;44106;-22
2021/05/08 18:32:14;;;;;;;3.47;2.00;;;;;;;14.78;43.44;98072.38;3825645;77;43314;-21
2021/05/08 18:37:20;;;;;;;3.55;2.00;;;;;;;14.74;43.77;98071.94;3826793;76;44451;-22
2021/05/08 18:42:25;;;;;;;2.80;2.10;;;;;;;14.70;44.36;98068.47;3827614;76;43036;-21
2021/05/08 18:47:32;;;;;;;3.02;2.10;;;;;;;14.64;44.82;98064.64;3824730;76;43452;-21
2021/05/08 18:52:38;;;;;;;3.27;2.58;;;;;;;14.62;45.07;98076.19;3824543;77;43454;-21
2021/05/08 18:57:44;;;;;;;3.02;2.15;;;;;;;14.55;45.42;98073.92;3834124;76;43280;-20
2021/05/08 19:02:50;;;;;;;2.95;2.00;;;;;;;14.47;45.87;98078.46;3819457;77;43707;-21
2021/05/08 19:07:56;;;;;;;2.22;2.00;;;;;;;14.41;46.23;98083.82;3805926;78;44025;-21
2021/05/08 19:13:01;;;;;;;2.20;1.70;;;;;;;14.34;46.32;98078.33;3807649;76;43454;-21
2021/05/08 19:18:07;;;;;;;2.67;2.20;;;;;;;14.28;46.41;98073.17;3805856;78;43588;-21
2021/05/08 19:23:13;;;;;;;2.55;1.55;;;;;;;14.22;46.64;98058.20;3805919;76;43378;-23
2021/05/08 19:28:20;;;;;;;2.87;1.82;;;;;;;14.09;47.21;98052.16;3806446;76;43971;-23
2021/05/08 19:33:27;;;;;;;2.80;1.50;;;;;;;13.93;47.91;98045.13;3805551;78;44100;-20
2021/05/08 19:38:34;;;;;;;2.10;1.80;;;;;;;13.76;48.62;98038.58;3805371;78;44003;-22
2021/05/08 19:43:40;;;;;;;2.15;1.85;;;;;;;13.59;49.75;98046.59;3806139;76;44382;-22
2021/05/08 19:48:48;;;;;;;2.25;1.72;;;;;;;13.53;50.09;98050.40;3803722;78;43319;-20
2021/05/08 19:53:54;;;;;;;3.52;1.92;;;;;;;13.40;49.96;98050.23;3803138;76;44143;-20
2021/05/08 19:59:02;;;;;;;1.92;1.65;;;;;;;13.34;49.34;98043.67;3804717;76;43372;-22
2021/05/08 20:04:08;;;;;;;2.92;1.98;;;;;;;13.33;49.99;98037.94;3805350;78;42928;-21
2021/05/08 20:09:15;;;;;;;4.50;3.33;;;;;;;13.32;49.79;98025.95;3802805;77;44135;-22
2021/05/08 20:14:21;;;;;;;3.77;2.98;;;;;;;13.23;49.66;98006.28;3805219;76;43199;-20
2021/05/08 20:19:27;;;;;;;4.25;2.62;;;;;;;13.05;50.22;98018.84;3804968;77;43773;-21
2021/05/08 20:24:35;;;;;;;3.10;2.20;;;;;;;13.03;50.25;98019.53;3804904;76;43688;-21
2021/05/08 20:29:41;;;;;;;2.95;1.90;;;;;;;12.95;50.14;98019.11;3803134;76;43730;-22
2021/05/08 20:34:47;;;;;;;2.75;2.10;;;;;;;12.87;49.70;98020.56;3803554;78;42766;-21
2021/05/08 20:39:54;;;;;;;4.35;2.20;;;;;;;12.75;50.12;98020.20;3792097;78;43700;-20
2021/05/08 20:45:01;;;;;;;2.33;1.90;;;;;;;12.73;50.02;98016.84;3788796;78;43366;-21
2021/05/08 20:50:09;;;;;;;3.22;2.47;;;;;;;12.76;49.24;98019.14;3805890;78;43666;-20
2021/05/08 20:55:16;;;;;;;2.80;2.42;;;;;;;12.77;50.24;98011.36;3802592;76;43405;-21
2021/05/08 21:00:22;;;;;;;2.27;1.80;;;;;;;12.75;50.27;98005.33;3800950;76;43319;-27
2021/05/08 21:05:28;;;;;;;2.90;1.82;;;;;;;12.80;50.62;98008.30;3783303;76;43436;-27
2021/05/08 21:10:34;;;;;;;2.77;1.82;;;;;;;12.82;50.70;98005.43;3771110;77;43311;-27
2021/05/08 21:15:43;;;;;;;2.50;1.70;;;;;;;12.85;50.86;98011.30;3775750;78;44355;-27
2021/05/08 21:20:50;;;;;;;2.20;1.80;;;;;;;12.87;50.40;98010.61;3771568;78;43419;-27
2021/05/08 21:25:56;;;;;;;2.50;1.87;;;;;;;12.87;51.20;98002.50;3777848;77;43685;-28
2021/05/08 21:31:02;;;;;;;2.67;1.90;;;;;;;12.86;51.61;98004.02;3774657;77;44114;-28
2021/05/08 21:36:11;;;;;;;2.92;1.95;;;;;;;12.84;51.73;98003.36;3774955;78;44062;-27
2021/05/08 21:41:17;;;;;;;2.05;1.70;;;;;;;12.83;52.07;98006.59;3775352;77;44101;-27
2021/05/08 21:46:24;;;;;;;2.90;2.00;;;;;;;12.78;52.14;98003.59;3771572;78;43488;-27
2021/05/08 21:51:32;;;;;;;2.90;1.77;;;;;;;12.74;52.40;97995.55;3774502;78;43240;-27
2021/05/08 21:56:38;;;;;;;2.58;2.12;;;;;;;12.75;52.37;97998.58;3776947;77;44066;-28
2021/05/08 22:01:44;;;;;;;4.33;2.70;;;;;;;12.77;52.09;98008.66;3774979;77;43714;-27
2021/05/08 22:06:52;;;;;;;5.85;2.75;;;;;;;12.79;52.20;98006.63;3801538;78;43345;-28
2021/05/08 22:11:59;;;;;;;2.58;1.82;;;;;;;12.77;51.93;98001.41;3805920;76;43404;-28
2021/05/08 22:17:06;;;;;;;2.47;1.92;;;;;;;12.77;52.47;97996.00;3805104;77;43713;-28
2021/05/08 22:22:12;;;;;;;3.08;1.90;;;;;;;12.77;53.12;98001.41;3804549;76;43095;-28
2021/05/08 22:27:18;;;;;;;1.90;1.67;;;;;;;12.73;53.21;98001.97;3805792;76;43670;-28
2021/05/08 22:32:24;;;;;;;2.27;1.70;;;;;;;12.67;52.98;97999.99;3805133;78;43622;-28
2021/05/08 22:37:30;;;;;;;2.12;1.60;;;;;;;12.70;53.19;97995.05;3804859;76;44115;-27
2021/05/08 22:42:35;;;;;;;2.60;2.10;;;;;;;12.69;53.50;98000.66;3805575;76;44080;-27
2021/05/08 22:47:41;;;;;;;2.45;1.80;;;;;;;12.67;53.28;97998.14;3802351;78;43488;-27
2021/05/08 22:52:49;;;;;;;2.02;1.70;;;;;;;12.67;52.91;97999.99;3803397;78;43983;-28
2021/05/08 22:57:55;;;;;;;2.35;2.00;;;;;;;12.64;53.61;98001.21;3803145;76;44055;-21
2021/05/08 23:03:01;;;;;;;2.00;1.75;;;;;;;12.64;53.51;97994.45;3804716;78;44681;-23
2021/05/08 23:08:07;;;;;;;2.50;1.72;;;;;;;12.53;53.66;97993.03;3774283;77;44090;-23
2021/05/08 23:13:14;;;;;;;3.92;1.70;;;;;;;12.50;54.28;97994.77;3774302;77;44227;-23
2021/05/08 23:18:20;;;;;;;1.87;1.75;;;;;;;12.41;54.46;97993.16;3774834;78;43358;-22
2021/05/08 23:23:27;;;;;;;3.17;1.85;;;;;;;12.32;54.84;97987.84;3771985;78;44344;-23
2021/05/08 23:28:33;;;;;;;1.98;1.77;;;;;;;12.23;55.16;97982.19;3775305;77;43678;-23
2021/05/08 23:33:39;;;;;;;5.15;1.82;;;;;;;12.09;55.74;97974.88;3775154;78;44076;-23
2021/05/08 23:38:46;;;;;;;2.67;1.90;;;;;;;12.04;56.70;97976.78;3775330;77;43281;-23
2021/05/08 23:43:52;;;;;;;1.80;1.65;;;;;;;11.93;56.85;97978.04;3775212;77;44039;-23
2021/05/08 23:48:58;;;;;;;2.12;1.77;;;;;;;11.80;57.37;97976.45;3771799;78;44072;-23
2021/05/08 23:54:06;;;;;;;2.30;1.85;;;;;;;11.78;57.09;97971.73;3772705;78;43496;-23
2021/05/08 23:59:13;;;;;;;2.80;1.55;;;;;;;11.74;57.71;97969.06;3769726;77;43416;-23
